Terminal Aerodrome Forecast
Issued by NWS Caribou, ME

Home | Current Version | Previous Version | Text Only | Print | Product List | Glossary On
Versions: 1 2 3 4 5 6 7 8 9 10 11 12 13 14 15 16 17 18 19 20
000
FTUS41 KCAR 261234 AAA
TAFBGR
TAF AMD
KBGR 261234Z 2613/2712 20009KT 3SM BR BKN004 OVC080
     FM261500 21008KT P6SM BKN070
     FM270300 19004KT 3SM BR FEW005 SCT120=

USA.gov is the U.S. government's official web portal to all federal, state and local government web resources and services.